Time;durP1;ratioP1;P1;durP2;ratioP2;P2;SDS_P1;SDS_P2;PMS_P1;PMS_P2;Temp;Humidity;BMP_temperature;BMP_pressure;BME280_temperature;BME280_humidity;BME280_pressure;Samples;Min_cycle;Max_cycle;Signal;HPM_P1;HPM_P2
2022/02/22 00:00:27;;;;;;;15.82;2.15;;;;;;;;;;5085546;28;20067;-62
2022/02/22 00:02:54;;;;;;;13.70;2.33;;;;;;;;;;5078554;28;20075;-57
2022/02/22 00:05:21;;;;;;;26.27;2.67;;;;;;;;;;5086601;28;20074;-63
2022/02/22 00:07:49;;;;;;;15.55;2.13;;;;;;;;;;5097369;28;20060;-59
2022/02/22 00:10:15;;;;;;;29.80;2.10;;;;;;;;;;5086462;28;20051;-60
2022/02/22 00:12:42;;;;;;;14.73;1.58;;;;;;;;;;5081301;28;20036;-63
2022/02/22 00:15:09;;;;;;;24.58;2.10;;;;;;;;;;5086171;28;20075;-63
2022/02/22 00:17:39;;;;;;;29.13;2.53;;;;;;;;;;5081852;28;20054;-60
2022/02/22 00:20:06;;;;;;;20.95;2.60;;;;;;;;;;5086419;28;20058;-57
2022/02/22 00:22:34;;;;;;;23.50;2.22;;;;;;;;;;5080064;28;20105;-62
2022/02/22 00:25:00;;;;;;;17.08;2.55;;;;;;;;;;5086369;28;20048;-61
2022/02/22 00:27:27;;;;;;;17.05;2.40;;;;;;;;;;5080327;28;20056;-60
2022/02/22 00:29:54;;;;;;;19.10;1.83;;;;;;;;;;5087106;28;20047;-63
2022/02/22 00:32:21;;;;;;;20.27;2.20;;;;;;;;;;5085832;28;20108;-60
2022/02/22 00:34:49;;;;;;;26.77;2.28;;;;;;;;;;5080865;28;21072;-59
2022/02/22 00:37:16;;;;;;;17.03;1.67;;;;;;;;;;5085830;28;20142;-60
2022/02/22 00:39:42;;;;;;;16.88;1.90;;;;;;;;;;5080372;28;20056;-62
2022/02/22 00:42:11;;;;;;;22.52;1.90;;;;;;;;;;5086241;28;20062;-61
2022/02/22 00:44:38;;;;;;;22.08;1.85;;;;;;;;;;5079862;28;20068;-62
2022/02/22 00:47:05;;;;;;;26.00;2.35;;;;;;;;;;5084925;28;20056;-62
2022/02/22 00:49:31;;;;;;;20.08;2.35;;;;;;;;;;5080048;28;20059;-59
2022/02/22 00:51:59;;;;;;;17.90;1.92;;;;;;;;;;5085331;28;20060;-61
2022/02/22 00:54:26;;;;;;;16.03;2.00;;;;;;;;;;5079365;28;20059;-60
2022/02/22 00:56:52;;;;;;;17.45;2.20;;;;;;;;;;5085342;28;20359;-62
2022/02/22 00:59:19;;;;;;;22.15;2.28;;;;;;;;;;5079403;28;20105;-63
2022/02/22 01:01:45;;;;;;;16.73;1.80;;;;;;;;;;5085536;28;20052;-63
2022/02/22 01:04:12;;;;;;;15.43;1.48;;;;;;;;;;5078974;28;20143;-63
2022/02/22 01:06:39;;;;;;;19.58;3.33;;;;;;;;;;5085409;28;20048;-59
2022/02/22 01:09:08;;;;;;;14.50;2.50;;;;;;;;;;5079887;28;20305;-58
2022/02/22 01:11:35;;;;;;;12.80;1.70;;;;;;;;;;5089664;28;20505;-62
2022/02/22 01:14:02;;;;;;;14.63;1.60;;;;;;;;;;5089967;28;20048;-60
2022/02/22 01:16:28;;;;;;;16.05;1.67;;;;;;;;;;5083159;28;20079;-60
2022/02/22 01:18:57;;;;;;;12.98;1.77;;;;;;;;;;5089104;28;20079;-58
2022/02/22 01:21:23;;;;;;;13.57;1.75;;;;;;;;;;5084013;28;20086;-62
2022/02/22 01:23:50;;;;;;;21.20;2.03;;;;;;;;;;5089847;28;20056;-62
2022/02/22 01:26:18;;;;;;;18.02;2.45;;;;;;;;;;5083194;28;20072;-61
2022/02/22 01:28:45;;;;;;;26.90;3.47;;;;;;;;;;5089237;28;20066;-62
2022/02/22 01:31:11;;;;;;;17.70;2.25;;;;;;;;;;5083855;28;20546;-62
2022/02/22 01:33:38;;;;;;;20.00;2.45;;;;;;;;;;5089402;28;20071;-57
2022/02/22 01:36:05;;;;;;;13.32;2.05;;;;;;;;;;5083495;28;20055;-61
2022/02/22 01:38:33;;;;;;;22.35;2.30;;;;;;;;;;5089537;28;20047;-59
2022/02/22 01:40:59;;;;;;;14.90;2.40;;;;;;;;;;5084441;28;20055;-59
2022/02/22 01:43:27;;;;;;;14.70;2.38;;;;;;;;;;5091984;28;20063;-61
2022/02/22 01:45:54;;;;;;;20.55;2.30;;;;;;;;;;5085886;28;20200;-67
2022/02/22 01:48:20;;;;;;;13.18;2.00;;;;;;;;;;5090479;28;20059;-62
2022/02/22 01:50:47;;;;;;;23.95;2.20;;;;;;;;;;5083663;28;20049;-54
2022/02/22 01:53:15;;;;;;;22.08;2.45;;;;;;;;;;5089620;28;20060;-62
2022/02/22 01:55:42;;;;;;;11.57;1.75;;;;;;;;;;5089933;28;20048;-62
2022/02/22 01:58:09;;;;;;;27.17;2.22;;;;;;;;;;5083389;28;20115;-60
2022/02/22 02:00:37;;;;;;;23.33;2.63;;;;;;;;;;5089691;28;20063;-57
2022/02/22 02:03:04;;;;;;;14.93;2.08;;;;;;;;;;5082096;28;20059;-58
2022/02/22 02:05:30;;;;;;;25.42;2.30;;;;;;;;;;5089369;28;20048;-59
2022/02/22 02:07:59;;;;;;;16.52;1.50;;;;;;;;;;5083109;28;20071;-55
2022/02/22 02:10:27;;;;;;;14.15;2.03;;;;;;;;;;5088870;28;20048;-59
2022/02/22 02:12:53;;;;;;;14.63;2.05;;;;;;;;;;5082958;28;20044;-59
2022/02/22 02:15:20;;;;;;;10.05;1.55;;;;;;;;;;5088636;28;20101;-62
2022/02/22 02:17:49;;;;;;;14.63;2.03;;;;;;;;;;5083256;28;20083;-59
2022/02/22 02:20:16;;;;;;;13.80;1.77;;;;;;;;;;5089283;28;20059;-60
2022/02/22 02:22:44;;;;;;;19.70;1.85;;;;;;;;;;5083217;28;20043;-62
2022/02/22 02:25:11;;;;;;;19.08;1.98;;;;;;;;;;5088876;28;20079;-60
2022/02/22 02:27:40;;;;;;;10.32;1.83;;;;;;;;;;5082383;28;20052;-56
2022/02/22 02:30:08;;;;;;;18.60;1.83;;;;;;;;;;5088809;28;20048;-61
2022/02/22 02:32:35;;;;;;;14.43;2.10;;;;;;;;;;5083006;28;20105;-55
2022/02/22 02:35:01;;;;;;;14.38;2.08;;;;;;;;;;5088877;28;20059;-59
2022/02/22 02:37:34;;;;;;;17.13;1.80;;;;;;;;;;5084263;28;20059;-59
2022/02/22 02:40:02;;;;;;;13.20;1.35;;;;;;;;;;5068681;28;20498;-59
2022/02/22 02:42:28;;;;;;;17.60;2.50;;;;;;;;;;5050150;28;20236;-62
2022/02/22 02:44:55;;;;;;;15.35;1.75;;;;;;;;;;5082138;28;20071;-60
2022/02/22 02:47:21;;;;;;;22.17;2.25;;;;;;;;;;5088985;28;20068;-59
2022/02/22 02:49:48;;;;;;;15.77;2.00;;;;;;;;;;5060848;28;20061;-57
2022/02/22 02:52:14;;;;;;;12.75;1.58;;;;;;;;;;5067926;28;20068;-62
2022/02/22 02:54:41;;;;;;;13.63;1.95;;;;;;;;;;5062926;28;20090;-61
2022/02/22 02:57:10;;;;;;;17.25;1.65;;;;;;;;;;5067944;28;20036;-60
2022/02/22 02:59:37;;;;;;;24.63;2.22;;;;;;;;;;5062519;28;20045;-62
2022/02/22 03:02:03;;;;;;;17.02;1.70;;;;;;;;;;5068590;28;20052;-63
2022/02/22 03:04:30;;;;;;;15.40;1.25;;;;;;;;;;5063202;28;20135;-63
2022/02/22 03:06:56;;;;;;;19.20;2.08;;;;;;;;;;5068515;28;20102;-62
2022/02/22 03:09:23;;;;;;;26.38;2.03;;;;;;;;;;5062732;28;20098;-62
2022/02/22 03:11:50;;;;;;;24.67;1.73;;;;;;;;;;5069274;28;20045;-61
2022/02/22 03:14:18;;;;;;;14.73;1.63;;;;;;;;;;5063829;28;20075;-62
2022/02/22 03:16:45;;;;;;;22.40;2.03;;;;;;;;;;5069003;28;20057;-64
2022/02/22 03:19:12;;;;;;;11.95;1.88;;;;;;;;;;5062568;28;20079;-59
2022/02/22 03:21:38;;;;;;;17.05;2.00;;;;;;;;;;5067907;28;20386;-58
2022/02/22 03:24:05;;;;;;;11.82;1.67;;;;;;;;;;5068096;28;20060;-57
2022/02/22 03:26:31;;;;;;;13.60;1.70;;;;;;;;;;5062081;28;20071;-60
2022/02/22 03:28:59;;;;;;;13.68;1.80;;;;;;;;;;5068615;28;20052;-59
2022/02/22 03:31:27;;;;;;;7.93;1.17;;;;;;;;;;5062189;28;20056;-55
2022/02/22 03:33:54;;;;;;;27.73;2.28;;;;;;;;;;5067656;28;20298;-54
2022/02/22 03:36:21;;;;;;;16.55;1.75;;;;;;;;;;5060968;28;20052;-57
2022/02/22 03:38:48;;;;;;;16.35;1.85;;;;;;;;;;5067643;28;20052;-60
2022/02/22 03:41:15;;;;;;;23.02;1.65;;;;;;;;;;5061703;28;20061;-57
2022/02/22 03:43:44;;;;;;;14.02;1.40;;;;;;;;;;5067980;28;20072;-56
2022/02/22 03:46:12;;;;;;;23.10;2.13;;;;;;;;;;5061887;28;20094;-54
2022/02/22 03:48:40;;;;;;;18.98;1.63;;;;;;;;;;5066851;28;20052;-63
2022/02/22 03:51:06;;;;;;;20.85;1.70;;;;;;;;;;5061797;28;20048;-60
2022/02/22 03:53:33;;;;;;;14.65;1.23;;;;;;;;;;5067299;28;20071;-58
2022/02/22 03:56:00;;;;;;;10.90;1.45;;;;;;;;;;5061329;28;20056;-58
2022/02/22 03:58:28;;;;;;;5.72;1.00;;;;;;;;;;5067182;28;20076;-55
2022/02/22 04:00:54;;;;;;;16.38;1.77;;;;;;;;;;5061707;28;20061;-59
2022/02/22 04:03:21;;;;;;;10.40;1.25;;;;;;;;;;5067282;28;20048;-56
2022/02/22 04:05:49;;;;;;;15.20;1.75;;;;;;;;;;5067632;28;20087;-60
2022/02/22 04:08:17;;;;;;;20.58;1.83;;;;;;;;;;5064020;28;20059;-57
2022/02/22 04:10:43;;;;;;;14.95;1.83;;;;;;;;;;5100799;27;20056;-59
2022/02/22 04:13:10;;;;;;;11.43;1.45;;;;;;;;;;5098184;28;20113;-57
2022/02/22 04:15:37;;;;;;;14.30;1.58;;;;;;;;;;5087096;28;20056;-59
2022/02/22 04:18:06;;;;;;;14.48;1.55;;;;;;;;;;5080717;28;20059;-55
2022/02/22 04:20:33;;;;;;;17.98;1.75;;;;;;;;;;5086270;28;20048;-62
2022/02/22 04:23:01;;;;;;;20.00;2.08;;;;;;;;;;5080413;28;20083;-61
2022/02/22 04:25:27;;;;;;;15.10;2.67;;;;;;;;;;5087010;28;20067;-60
2022/02/22 04:27:55;;;;;;;22.70;1.88;;;;;;;;;;5080004;28;20056;-61
2022/02/22 04:30:21;;;;;;;19.05;1.90;;;;;;;;;;5086713;28;20044;-58
2022/02/22 04:32:48;;;;;;;13.95;1.80;;;;;;;;;;5080975;28;20115;-59
2022/02/22 04:35:14;;;;;;;16.42;2.25;;;;;;;;;;5087299;28;20052;-59
2022/02/22 04:37:41;;;;;;;18.45;1.77;;;;;;;;;;5081669;28;20139;-56
2022/02/22 04:40:11;;;;;;;15.38;1.83;;;;;;;;;;5087796;28;20133;-62
2022/02/22 04:42:37;;;;;;;12.32;1.30;;;;;;;;;;5082326;28;20105;-60
2022/02/22 04:45:04;;;;;;;9.35;1.08;;;;;;;;;;5087341;28;20052;-62
2022/02/22 04:47:31;;;;;;;16.75;1.70;;;;;;;;;;5086135;28;20051;-61
2022/02/22 04:49:58;;;;;;;19.20;1.58;;;;;;;;;;5090443;28;20040;-58
2022/02/22 04:52:24;;;;;;;11.50;1.20;;;;;;;;;;5090636;28;20079;-61
2022/02/22 04:54:51;;;;;;;11.20;1.35;;;;;;;;;;5083919;28;20078;-60
2022/02/22 04:57:20;;;;;;;15.20;1.58;;;;;;;;;;5089606;28;20101;-62
2022/02/22 04:59:47;;;;;;;11.75;2.00;;;;;;;;;;5085086;28;20055;-62
2022/02/22 05:02:13;;;;;;;14.70;1.75;;;;;;;;;;5090368;28;20067;-63
2022/02/22 05:04:40;;;;;;;14.63;1.65;;;;;;;;;;5085187;28;20098;-59
2022/02/22 05:07:08;;;;;;;13.93;1.90;;;;;;;;;;5089561;28;20109;-61
2022/02/22 05:09:40;;;;;;;8.82;1.23;;;;;;;;;;5083152;28;20055;-61
2022/02/22 05:12:06;;;;;;;11.88;1.90;;;;;;;;;;5090605;28;20108;-58
2022/02/22 05:14:34;;;;;;;16.05;1.73;;;;;;;;;;5084350;28;20089;-56
2022/02/22 05:17:01;;;;;;;11.38;1.27;;;;;;;;;;5090136;28;20051;-56
2022/02/22 05:19:28;;;;;;;13.18;2.05;;;;;;;;;;5083950;28;20134;-57
2022/02/22 05:21:57;;;;;;;13.57;1.63;;;;;;;;;;5089299;28;20492;-57
2022/02/22 05:24:23;;;;;;;17.30;1.45;;;;;;;;;;5084094;28;20051;-55
2022/02/22 05:26:50;;;;;;;22.60;1.88;;;;;;;;;;5090535;28;20074;-59
2022/02/22 05:29:16;;;;;;;15.35;1.45;;;;;;;;;;5084253;28;20125;-61
2022/02/22 05:31:44;;;;;;;11.68;1.23;;;;;;;;;;5090308;28;20052;-61
2022/02/22 05:34:11;;;;;;;13.05;2.00;;;;;;;;;;5079367;28;20044;-60
2022/02/22 05:36:38;;;;;;;12.80;1.25;;;;;;;;;;5082935;28;20060;-58
2022/02/22 05:39:05;;;;;;;10.80;1.33;;;;;;;;;;5090218;28;20052;-59
2022/02/22 05:41:31;;;;;;;16.02;1.48;;;;;;;;;;5084414;28;20078;-61
2022/02/22 05:43:58;;;;;;;11.75;1.38;;;;;;;;;;5089880;28;20040;-61
2022/02/22 05:46:24;;;;;;;8.43;0.95;;;;;;;;;;5083593;28;20054;-58
2022/02/22 05:48:52;;;;;;;14.95;1.48;;;;;;;;;;5089337;28;20138;-62
2022/02/22 05:51:19;;;;;;;6.30;1.20;;;;;;;;;;5083879;28;20075;-60
2022/02/22 05:53:48;;;;;;;9.65;1.10;;;;;;;;;;5090385;28;20299;-60
2022/02/22 05:56:15;;;;;;;14.90;2.30;;;;;;;;;;5083344;28;20060;-57
2022/02/22 05:58:54;;;;;;;9.45;1.13;;;;;;;;;;5089667;28;20056;-55
2022/02/22 06:01:21;;;;;;;14.30;2.95;;;;;;;;;;5084772;28;20048;-60
2022/02/22 06:03:47;;;;;;;23.98;3.92;;;;;;;;;;5088228;28;20052;-58
2022/02/22 06:06:15;;;;;;;7.88;2.30;;;;;;;;;;5083826;28;20048;-62
2022/02/22 06:08:42;;;;;;;13.50;1.50;;;;;;;;;;5093463;28;20485;-56
2022/02/22 06:11:08;;;;;;;19.80;2.30;;;;;;;;;;5086740;28;20044;-58
2022/02/22 06:13:37;;;;;;;19.27;3.28;;;;;;;;;;5094260;28;20047;-61
2022/02/22 06:16:04;;;;;;;15.65;2.58;;;;;;;;;;5087294;28;20097;-57
2022/02/22 06:18:33;;;;;;;9.73;1.90;;;;;;;;;;5093105;28;20060;-61
2022/02/22 06:20:59;;;;;;;;;;;;;;;;;;5092923;28;20490;-62
2022/02/22 06:23:27;;;;;;;5.28;1.13;;;;;;;;;;5086207;28;19924;-62
2022/02/22 06:25:54;;;;;;;8.65;1.48;;;;;;;;;;5092292;28;20047;-62
2022/02/22 06:28:20;;;;;;;16.75;1.73;;;;;;;;;;5086364;28;20040;-55
2022/02/22 06:30:47;;;;;;;12.55;1.92;;;;;;;;;;5092117;28;20055;-57
2022/02/22 06:33:13;;;;;;;22.48;4.60;;;;;;;;;;5084382;28;20143;-55
2022/02/22 06:35:40;;;;;;;14.93;2.80;;;;;;;;;;5092357;28;20087;-58
2022/02/22 06:38:06;;;;;;;10.55;1.52;;;;;;;;;;5086224;28;20060;-57
2022/02/22 06:40:36;;;;;;;10.10;1.50;;;;;;;;;;5091581;28;20048;-60
2022/02/22 06:43:04;;;;;;;7.68;1.25;;;;;;;;;;5087325;28;20089;-59
2022/02/22 06:45:31;;;;;;;14.68;1.52;;;;;;;;;;5102125;27;20062;-58
2022/02/22 06:47:58;;;;;;;12.27;1.48;;;;;;;;;;5085318;28;20058;-57
2022/02/22 06:50:25;;;;;;;10.43;1.58;;;;;;;;;;5092169;28;20059;-56
2022/02/22 06:52:52;;;;;;;8.00;1.58;;;;;;;;;;5084482;28;20054;-60
2022/02/22 06:55:18;;;;;;;10.07;1.63;;;;;;;;;;5088071;28;20489;-61
2022/02/22 06:57:49;;;;;;;12.32;1.38;;;;;;;;;;5081391;28;20056;-62
2022/02/22 07:00:18;;;;;;;4.43;1.08;;;;;;;;;;5087464;28;20098;-60
2022/02/22 07:02:45;;;;;;;12.68;1.10;;;;;;;;;;5083119;28;20147;-58
2022/02/22 07:05:11;;;;;;;15.38;1.30;;;;;;;;;;5086492;28;20055;-59
2022/02/22 07:07:39;;;;;;;16.83;1.98;;;;;;;;;;5087058;28;20060;-62
2022/02/22 07:10:06;;;;;;;7.35;1.63;;;;;;;;;;5081616;28;20086;-56
2022/02/22 07:12:33;;;;;;;14.05;2.50;;;;;;;;;;5088582;28;20059;-58
2022/02/22 07:15:01;;;;;;;10.85;1.67;;;;;;;;;;5080862;28;20064;-58
2022/02/22 07:17:27;;;;;;;13.30;1.83;;;;;;;;;;5086980;28;20048;-57
2022/02/22 07:19:57;;;;;;;6.82;1.80;;;;;;;;;;5081181;28;20062;-56
2022/02/22 07:22:23;;;;;;;17.95;2.15;;;;;;;;;;5087080;28;20113;-56
2022/02/22 07:24:50;;;;;;;8.13;1.30;;;;;;;;;;5081024;28;20056;-57
2022/02/22 07:27:17;;;;;;;8.48;1.45;;;;;;;;;;5087473;28;20113;-57
2022/02/22 07:29:43;;;;;;;7.55;1.27;;;;;;;;;;5081514;28;20124;-55
2022/02/22 07:32:11;;;;;;;13.45;2.00;;;;;;;;;;5086575;28;20083;-53
2022/02/22 07:34:38;;;;;;;5.47;1.30;;;;;;;;;;5081445;28;20615;-56
2022/02/22 07:37:05;;;;;;;10.32;1.30;;;;;;;;;;5086952;28;20090;-57
2022/02/22 07:39:31;;;;;;;4.80;1.20;;;;;;;;;;5082565;28;20074;-56
2022/02/22 07:41:59;;;;;;;5.47;1.30;;;;;;;;;;5089621;28;20059;-61
2022/02/22 07:44:25;;;;;;;13.73;1.63;;;;;;;;;;5081817;28;20112;-62
2022/02/22 07:46:52;;;;;;;9.50;1.50;;;;;;;;;;5088030;28;20124;-56
2022/02/22 07:49:20;;;;;;;16.90;2.55;;;;;;;;;;5087096;28;20071;-56
2022/02/22 07:51:46;;;;;;;12.37;1.70;;;;;;;;;;5051575;28;20047;-57
2022/02/22 07:54:13;;;;;;;10.85;1.38;;;;;;;;;;5085435;28;20055;-56
2022/02/22 07:56:41;;;;;;;6.38;1.48;;;;;;;;;;5079797;28;20052;-58
2022/02/22 07:59:08;;;;;;;9.68;2.00;;;;;;;;;;5086420;28;20064;-56
2022/02/22 08:01:34;;;;;;;12.88;1.42;;;;;;;;;;5075169;28;20147;-56
2022/02/22 08:04:01;;;;;;;8.23;1.73;;;;;;;;;;5103256;28;20138;-60
2022/02/22 08:06:29;;;;;;;10.98;1.50;;;;;;;;;;5096984;28;20047;-60
2022/02/22 08:08:56;;;;;;;11.88;1.17;;;;;;;;;;5085914;28;20088;-58
2022/02/22 08:11:22;;;;;;;5.38;1.38;;;;;;;;;;5081059;28;20094;-57
2022/02/22 08:13:52;;;;;;;7.55;1.52;;;;;;;;;;5086682;28;20063;-59
2022/02/22 08:16:19;;;;;;;9.82;1.60;;;;;;;;;;5080711;28;20125;-59
2022/02/22 08:18:48;;;;;;;16.45;1.95;;;;;;;;;;5086124;28;20059;-57
2022/02/22 08:21:15;;;;;;;10.32;2.40;;;;;;;;;;5084277;28;20060;-59
2022/02/22 08:23:43;;;;;;;15.38;2.65;;;;;;;;;;5090568;28;20075;-59
2022/02/22 08:26:09;;;;;;;8.63;1.67;;;;;;;;;;5083935;28;20056;-57
2022/02/22 08:28:37;;;;;;;10.02;1.50;;;;;;;;;;5089528;28;20297;-56
2022/02/22 08:31:03;;;;;;;18.65;1.70;;;;;;;;;;5089871;28;20433;-59
2022/02/22 08:33:30;;;;;;;14.82;2.08;;;;;;;;;;5084476;28;20055;-58
2022/02/22 08:35:57;;;;;;;19.58;1.80;;;;;;;;;;5090186;28;20048;-56
2022/02/22 08:38:25;;;;;;;12.93;2.00;;;;;;;;;;5084307;28;20060;-60
2022/02/22 08:40:53;;;;;;;12.90;1.80;;;;;;;;;;5090901;28;20113;-57
2022/02/22 08:43:19;;;;;;;8.07;0.90;;;;;;;;;;5084006;28;20105;-59
2022/02/22 08:45:46;;;;;;;12.55;1.73;;;;;;;;;;5089789;28;20056;-59
2022/02/22 08:48:13;;;;;;;20.10;1.73;;;;;;;;;;5083915;28;20051;-60
2022/02/22 08:50:39;;;;;;;10.25;1.65;;;;;;;;;;5089489;28;20117;-57
2022/02/22 08:53:06;;;;;;;15.02;1.73;;;;;;;;;;5084455;28;20062;-60
2022/02/22 08:55:33;;;;;;;11.05;1.98;;;;;;;;;;5090097;28;20147;-61
2022/02/22 08:58:01;;;;;;;14.05;1.75;;;;;;;;;;5083840;28;20056;-56
2022/02/22 09:00:28;;;;;;;11.82;1.77;;;;;;;;;;5089656;28;20045;-59
2022/02/22 09:02:57;;;;;;;12.18;1.55;;;;;;;;;;5083640;28;20043;-57
2022/02/22 09:05:23;;;;;;;;;;;;;;;;;;5090737;28;20056;-58
2022/02/22 09:07:50;;;;;;;13.80;2.03;;;;;;;;;;5101376;27;19942;-61
2022/02/22 09:10:16;;;;;;;9.10;1.70;;;;;;;;;;5090475;28;20060;-62
2022/02/22 09:12:45;;;;;;;10.35;1.70;;;;;;;;;;5091278;28;20044;-62
2022/02/22 09:15:13;;;;;;;11.05;2.50;;;;;;;;;;5088633;28;20135;-61
2022/02/22 09:17:40;;;;;;;9.18;2.15;;;;;;;;;;5089249;28;20086;-58
2022/02/22 09:20:08;;;;;;;15.63;1.88;;;;;;;;;;5083401;28;20060;-61
2022/02/22 09:22:34;;;;;;;11.73;2.33;;;;;;;;;;5090080;28;20489;-62
2022/02/22 09:25:02;;;;;;;18.33;2.15;;;;;;;;;;5083997;28;20052;-59
2022/02/22 09:27:31;;;;;;;12.27;2.17;;;;;;;;;;5089840;28;20122;-62
2022/02/22 09:29:58;;;;;;;12.60;2.53;;;;;;;;;;5083713;28;20059;-61
2022/02/22 09:32:27;;;;;;;22.70;4.93;;;;;;;;;;5088689;28;20043;-61
2022/02/22 09:34:54;;;;;;;15.00;2.65;;;;;;;;;;5083342;28;20055;-60
2022/02/22 09:37:21;;;;;;;26.90;3.45;;;;;;;;;;5089609;28;20052;-57
2022/02/22 09:39:47;;;;;;;11.27;2.90;;;;;;;;;;5083022;28;20404;-56
2022/02/22 09:42:13;;;;;;;19.27;3.17;;;;;;;;;;5089285;28;20125;-64
2022/02/22 09:44:40;;;;;;;17.65;2.55;;;;;;;;;;5082753;28;20070;-59
2022/02/22 09:47:08;;;;;;;26.92;2.50;;;;;;;;;;5086642;28;20052;-57
2022/02/22 09:49:37;;;;;;;11.27;2.63;;;;;;;;;;5082650;28;20059;-58
2022/02/22 09:52:03;;;;;;;18.08;2.33;;;;;;;;;;5088750;28;20064;-60
2022/02/22 09:54:30;;;;;;;15.48;3.10;;;;;;;;;;5083039;28;20048;-62
2022/02/22 09:56:57;;;;;;;18.98;2.33;;;;;;;;;;5088491;28;20119;-63
2022/02/22 09:59:24;;;;;;;16.08;2.22;;;;;;;;;;5088885;28;20167;-55
2022/02/22 10:01:52;;;;;;;12.98;2.20;;;;;;;;;;5083374;28;20060;-63
2022/02/22 10:04:19;;;;;;;16.08;2.10;;;;;;;;;;5088776;28;20048;-62
2022/02/22 10:06:47;;;;;;;13.52;2.25;;;;;;;;;;5081628;28;20055;-58
2022/02/22 10:09:14;;;;;;;14.73;2.75;;;;;;;;;;5089398;28;20104;-58
2022/02/22 10:11:47;;;;;;;20.27;2.67;;;;;;;;;;5073007;28;20059;-59
2022/02/22 10:14:20;;;;;;;18.83;2.53;;;;;;;;;;5087921;28;20056;-57
2022/02/22 10:16:48;;;;;;;15.20;2.72;;;;;;;;;;5081475;28;20059;-61
2022/02/22 10:19:15;;;;;;;14.30;2.05;;;;;;;;;;5087987;28;20105;-58
2022/02/22 10:21:43;;;;;;;18.15;2.47;;;;;;;;;;5078076;28;20076;-62
2022/02/22 10:24:11;;;;;;;16.77;2.80;;;;;;;;;;5101622;28;20050;-61
2022/02/22 10:26:38;;;;;;;;;;;;;;;;;;5080812;28;20551;-57
2022/02/22 10:29:12;;;;;;;16.33;2.33;;;;;;;;;;5071189;28;19924;-60
2022/02/22 10:31:39;;;;;;;22.08;2.60;;;;;;;;;;5068988;28;20130;-57
2022/02/22 10:34:05;;;;;;;19.05;2.05;;;;;;;;;;5083029;28;20051;-59
2022/02/22 10:36:33;;;;;;;18.55;2.88;;;;;;;;;;5079507;28;20127;-62
2022/02/22 10:39:03;;;;;;;16.02;2.20;;;;;;;;;;5087384;28;20147;-57
2022/02/22 10:41:34;;;;;;;13.75;2.35;;;;;;;;;;5088282;28;20056;-60
2022/02/22 10:44:02;;;;;;;14.23;1.80;;;;;;;;;;5070222;28;20075;-63
2022/02/22 10:46:29;;;;;;;21.52;2.20;;;;;;;;;;5101718;28;20055;-59
2022/02/22 10:49:04;;;;;;;9.95;1.98;;;;;;;;;;5067175;28;20170;-60
2022/02/22 10:51:35;;;;;;;17.23;2.10;;;;;;;;;;5084293;28;20206;-61
2022/02/22 10:54:02;;;;;;;24.85;2.45;;;;;;;;;;5085014;28;20060;-57
2022/02/22 10:56:32;;;;;;;21.83;2.17;;;;;;;;;;5087091;28;20188;-59
2022/02/22 10:58:59;;;;;;;19.70;2.30;;;;;;;;;;5081348;28;20078;-57
2022/02/22 11:01:26;;;;;;;15.60;2.10;;;;;;;;;;5084987;28;20071;-61
2022/02/22 11:03:52;;;;;;;14.63;2.58;;;;;;;;;;5082312;28;20076;-61
2022/02/22 11:06:20;;;;;;;16.38;2.88;;;;;;;;;;5089770;28;20071;-61
2022/02/22 11:08:49;;;;;;;18.35;2.00;;;;;;;;;;5084403;28;20135;-59
2022/02/22 11:11:17;;;;;;;20.45;2.45;;;;;;;;;;5090439;28;20048;-60
2022/02/22 11:13:55;;;;;;;11.60;2.15;;;;;;;;;;5084060;28;20489;-58
2022/02/22 11:16:22;;;;;;;13.70;2.25;;;;;;;;;;5089649;28;20060;-58
2022/02/22 11:18:49;;;;;;;19.13;3.20;;;;;;;;;;5083658;28;20036;-58
2022/02/22 11:21:16;;;;;;;15.00;2.05;;;;;;;;;;5089998;28;20109;-59
2022/02/22 11:23:43;;;;;;;16.48;2.50;;;;;;;;;;5084503;28;20039;-63
2022/02/22 11:26:11;;;;;;;28.23;3.00;;;;;;;;;;5088411;28;20055;-62
2022/02/22 11:28:39;;;;;;;12.40;2.40;;;;;;;;;;5082412;28;20047;-59
2022/02/22 11:31:10;;;;;;;24.27;2.60;;;;;;;;;;5089352;28;20131;-58
2022/02/22 11:33:44;;;;;;;18.60;2.33;;;;;;;;;;5082384;28;20044;-60
2022/02/22 11:36:11;;;;;;;24.08;2.90;;;;;;;;;;5088064;28;20478;-63
2022/02/22 11:38:45;;;;;;;20.10;2.80;;;;;;;;;;5082286;28;20113;-59
2022/02/22 11:41:15;;;;;;;18.00;2.60;;;;;;;;;;5089341;28;20075;-61
2022/02/22 11:43:51;;;;;;;14.35;2.65;;;;;;;;;;5084931;28;20047;-61
2022/02/22 11:46:19;;;;;;;17.85;2.30;;;;;;;;;;5089269;28;20126;-58
2022/02/22 11:48:48;;;;;;;17.67;2.22;;;;;;;;;;5098470;27;20051;-60
2022/02/22 11:51:15;;;;;;;;;;;;;;;;;;5087470;27;20052;-63
2022/02/22 11:53:43;;;;;;;15.35;2.85;;;;;;;;;;5089931;28;19973;-56
2022/02/22 11:56:19;;;;;;;16.67;2.10;;;;;;;;;;5083945;28;20548;-56
2022/02/22 11:58:46;;;;;;;18.98;2.30;;;;;;;;;;5089025;28;20532;-59
2022/02/22 12:01:17;;;;;;;17.70;2.88;;;;;;;;;;5083609;28;20055;-64
2022/02/22 12:03:46;;;;;;;29.40;2.90;;;;;;;;;;5088779;28;20059;-59
2022/02/22 12:06:14;;;;;;;24.92;2.85;;;;;;;;;;5082603;28;20409;-58
2022/02/22 12:08:48;;;;;;;16.55;2.88;;;;;;;;;;5089861;28;20052;-60
2022/02/22 12:11:19;;;;;;;13.30;2.60;;;;;;;;;;5099267;28;20052;-64
2022/02/22 12:13:46;;;;;;;17.80;3.88;;;;;;;;;;5089782;28;20101;-64
2022/02/22 12:16:13;;;;;;;18.20;2.63;;;;;;;;;;5083389;28;20083;-61
2022/02/22 12:18:42;;;;;;;13.13;2.72;;;;;;;;;;5090992;28;20483;-59
2022/02/22 12:21:10;;;;;;;22.80;4.45;;;;;;;;;;5094239;28;20105;-58
2022/02/22 12:23:38;;;;;;;23.70;3.42;;;;;;;;;;5089498;28;20060;-64
2022/02/22 12:26:05;;;;;;;19.98;2.92;;;;;;;;;;5083872;28;20052;-64
2022/02/22 12:28:32;;;;;;;15.88;2.55;;;;;;;;;;5089061;28;20059;-60
2022/02/22 12:30:59;;;;;;;16.33;3.83;;;;;;;;;;5082001;28;20075;-59
2022/02/22 12:33:31;;;;;;;14.13;3.58;;;;;;;;;;5078725;28;20043;-58
2022/02/22 12:35:57;;;;;;;22.95;3.28;;;;;;;;;;5081586;28;22508;-59
2022/02/22 12:38:27;;;;;;;20.70;3.25;;;;;;;;;;5088615;28;20064;-59
2022/02/22 12:40:53;;;;;;;20.55;3.72;;;;;;;;;;5084628;28;20117;-60
2022/02/22 12:43:21;;;;;;;29.85;3.58;;;;;;;;;;5087390;28;20059;-59
2022/02/22 12:45:50;;;;;;;17.55;2.80;;;;;;;;;;5088814;28;20056;-64
2022/02/22 12:48:18;;;;;;;13.68;2.97;;;;;;;;;;5082014;28;20055;-60
2022/02/22 12:50:53;;;;;;;16.77;3.10;;;;;;;;;;5088707;28;20585;-60
2022/02/22 12:53:24;;;;;;;14.00;3.28;;;;;;;;;;5083305;28;20153;-57
2022/02/22 12:55:52;;;;;;;17.15;3.30;;;;;;;;;;5088606;28;20056;-62
2022/02/22 12:58:20;;;;;;;15.63;3.67;;;;;;;;;;5082686;28;20059;-62
2022/02/22 13:00:48;;;;;;;14.77;3.30;;;;;;;;;;5086638;28;20044;-58
2022/02/22 13:03:16;;;;;;;10.83;2.97;;;;;;;;;;5080922;28;20079;-62
2022/02/22 13:05:43;;;;;;;20.60;3.75;;;;;;;;;;5088757;28;20293;-60
2022/02/22 13:08:10;;;;;;;22.90;3.72;;;;;;;;;;5087236;28;20051;-62
2022/02/22 13:10:41;;;;;;;19.65;4.03;;;;;;;;;;5092850;28;20055;-64
2022/02/22 13:13:09;;;;;;;18.10;4.60;;;;;;;;;;5086597;28;20078;-64
2022/02/22 13:15:35;;;;;;;19.98;4.07;;;;;;;;;;5102448;28;20052;-63
2022/02/22 13:18:15;;;;;;;17.30;4.25;;;;;;;;;;5085633;28;20164;-63
2022/02/22 13:20:42;;;;;;;22.40;4.47;;;;;;;;;;5090754;28;20055;-62
2022/02/22 13:23:12;;;;;;;18.25;4.88;;;;;;;;;;5086363;27;20048;-64
2022/02/22 13:25:38;;;;;;;23.08;4.75;;;;;;;;;;5093015;27;20477;-66
2022/02/22 13:28:05;;;;;;;19.00;4.05;;;;;;;;;;5085876;28;20515;-63
2022/02/22 13:30:35;;;;;;;16.42;4.63;;;;;;;;;;5091908;28;20054;-62
2022/02/22 13:33:05;;;;;;;31.73;5.38;;;;;;;;;;5085834;28;20067;-62
2022/02/22 13:35:32;;;;;;;16.77;4.47;;;;;;;;;;5092272;28;20066;-62
2022/02/22 13:37:59;;;;;;;17.50;4.38;;;;;;;;;;5091869;28;20055;-62
2022/02/22 13:40:30;;;;;;;13.02;3.55;;;;;;;;;;5086161;28;20056;-63
2022/02/22 13:43:01;;;;;;;18.13;4.05;;;;;;;;;;5092554;28;20109;-64
2022/02/22 13:45:29;;;;;;;15.80;4.05;;;;;;;;;;5087257;28;20060;-64
2022/02/22 13:48:01;;;;;;;16.23;4.40;;;;;;;;;;5094459;28;20067;-64
2022/02/22 13:50:30;;;;;;;19.42;4.43;;;;;;;;;;5086647;28;20447;-65
2022/02/22 13:52:57;;;;;;;18.95;4.22;;;;;;;;;;5092529;28;20095;-62
2022/02/22 13:55:24;;;;;;;19.02;4.50;;;;;;;;;;5085347;28;20048;-61
2022/02/22 13:57:59;;;;;;;17.98;4.47;;;;;;;;;;5092900;28;20163;-61
2022/02/22 14:00:26;;;;;;;18.33;4.85;;;;;;;;;;5099354;27;20063;-60
2022/02/22 14:03:01;;;;;;;13.63;3.72;;;;;;;;;;5091211;28;20067;-59
2022/02/22 14:05:28;;;;;;;19.55;4.82;;;;;;;;;;5082905;28;20056;-63
2022/02/22 14:07:54;;;;;;;19.25;4.70;;;;;;;;;;5090381;28;20051;-63
2022/02/22 14:10:21;;;;;;;13.88;4.25;;;;;;;;;;5083635;28;20048;-64
2022/02/22 14:12:48;;;;;;;20.50;4.35;;;;;;;;;;5091440;28;20052;-60
2022/02/22 14:15:14;;;;;;;25.10;4.80;;;;;;;;;;5085211;28;20066;-57
2022/02/22 14:17:42;;;;;;;20.23;4.65;;;;;;;;;;5090603;28;20040;-61
2022/02/22 14:20:11;;;;;;;20.80;4.97;;;;;;;;;;5084679;28;20156;-63
2022/02/22 14:22:38;;;;;;;16.33;4.35;;;;;;;;;;5100872;27;20098;-61
2022/02/22 14:25:05;;;;;;;16.27;3.53;;;;;;;;;;5085058;28;20048;-60
2022/02/22 14:27:31;;;;;;;14.85;3.75;;;;;;;;;;5090437;28;20402;-60
2022/02/22 14:29:58;;;;;;;18.50;4.47;;;;;;;;;;5090845;28;20059;-60
2022/02/22 14:32:24;;;;;;;16.77;3.30;;;;;;;;;;5084681;28;20047;-58
2022/02/22 14:34:50;;;;;;;16.33;3.63;;;;;;;;;;5090794;28;20056;-63